Time;durP1;ratioP1;P1;durP2;ratioP2;P2;SDS_P1;SDS_P2;PMS_P1;PMS_P2;Temp;Humidity;BMP_temperature;BMP_pressure;BME280_temperature;BME280_humidity;BME280_pressure;Samples;Min_cycle;Max_cycle;Signal;HPM_P1;HPM_P2
2020/12/21 00:01:16;;;;;;;18.60;17.60;;;9.00;93.10;;;;;;5013109;28;20194;-77
2020/12/21 00:03:44;;;;;;;20.80;19.25;;;9.00;93.10;;;;;;5012987;28;20194;-78
2020/12/21 00:06:11;;;;;;;19.05;17.85;;;9.00;92.90;;;;;;5012931;28;20224;-78
2020/12/21 00:08:37;;;;;;;18.05;17.02;;;8.90;93.40;;;;;;5012839;28;20202;-78
2020/12/21 00:11:04;;;;;;;18.48;17.15;;;9.00;93.40;;;;;;5012776;28;20634;-78
2020/12/21 00:13:30;;;;;;;19.42;18.20;;;9.00;93.40;;;;;;5013228;28;20221;-77
2020/12/21 00:15:57;;;;;;;19.10;17.83;;;9.00;93.30;;;;;;5012870;28;20243;-78
2020/12/21 00:18:24;;;;;;;19.75;18.55;;;9.00;93.40;;;;;;5012573;28;20237;-78
2020/12/21 00:20:51;;;;;;;19.58;18.35;;;9.00;93.50;;;;;;5012942;28;20202;-78
2020/12/21 00:23:17;;;;;;;20.73;19.10;;;9.00;93.40;;;;;;5012978;28;20248;-78
2020/12/21 00:25:44;;;;;;;19.75;18.42;;;9.00;93.10;;;;;;5012588;28;20218;-78
2020/12/21 00:28:10;;;;;;;19.85;18.60;;;8.90;93.30;;;;;;5012346;28;20231;-78
2020/12/21 00:30:38;;;;;;;18.73;17.63;;;8.80;93.60;;;;;;5014740;28;20226;-78
2020/12/21 00:33:05;;;;;;;19.27;17.88;;;8.80;93.90;;;;;;5015241;28;20205;-78
2020/12/21 00:35:32;;;;;;;17.98;16.90;;;8.80;93.90;;;;;;5012963;28;20221;-77
2020/12/21 00:37:59;;;;;;;19.17;17.88;;;8.90;93.80;;;;;;5012987;28;20210;-78
2020/12/21 00:40:26;;;;;;;19.38;18.02;;;8.90;93.70;;;;;;5012703;28;20220;-78
2020/12/21 00:42:52;;;;;;;19.25;18.05;;;8.90;93.70;;;;;;5012539;28;20202;-78
2020/12/21 00:45:19;;;;;;;19.13;17.75;;;8.90;93.50;;;;;;5012568;28;20257;-77
2020/12/21 00:47:45;;;;;;;17.95;16.83;;;9.00;93.20;;;;;;5013448;28;20194;-77
2020/12/21 00:50:12;;;;;;;19.30;18.20;;;9.00;93.00;;;;;;5016218;28;20218;-78
2020/12/21 00:52:39;;;;;;;18.13;16.93;;;8.90;93.60;;;;;;5015111;28;20564;-78
2020/12/21 00:55:06;;;;;;;18.60;17.40;;;9.00;93.10;;;;;;5016044;28;20527;-77
2020/12/21 00:57:33;;;;;;;17.77;16.77;;;9.00;92.90;;;;;;5016198;28;20578;-77
2020/12/21 01:00:00;;;;;;;18.35;17.05;;;9.00;92.90;;;;;;5015989;28;20217;-77
2020/12/21 01:02:27;;;;;;;17.80;16.42;;;9.00;93.00;;;;;;5015870;28;20199;-77
2020/12/21 01:04:53;;;;;;;17.35;16.25;;;9.00;92.90;;;;;;5015840;28;20228;-77
2020/12/21 01:07:21;;;;;;;16.85;15.85;;;9.00;92.90;;;;;;5016093;28;20222;-77
2020/12/21 01:09:47;;;;;;;18.05;16.85;;;9.00;92.80;;;;;;5015965;28;20202;-77
2020/12/21 01:12:14;;;;;;;16.83;15.80;;;8.90;92.90;;;;;;5015790;28;20202;-77
2020/12/21 01:14:41;;;;;;;16.25;15.25;;;8.90;93.30;;;;;;4996333;28;20201;-77
2020/12/21 01:17:08;;;;;;;16.38;15.35;;;8.80;93.70;;;;;;4996078;28;20214;-77
2020/12/21 01:19:34;;;;;;;16.40;15.40;;;8.80;93.90;;;;;;4996412;28;20333;-77
2020/12/21 01:22:01;;;;;;;17.13;16.23;;;8.70;94.30;;;;;;4997179;28;20233;-77
2020/12/21 01:24:28;;;;;;;16.88;15.95;;;8.70;94.70;;;;;;5015317;28;20194;-78
2020/12/21 01:26:55;;;;;;;16.23;15.32;;;8.70;94.60;;;;;;5017183;28;20291;-78
2020/12/21 01:29:21;;;;;;;17.10;16.10;;;8.80;94.20;;;;;;5015769;28;20285;-77
2020/12/21 01:31:47;;;;;;;17.20;16.13;;;8.80;94.10;;;;;;5015787;28;20272;-78
2020/12/21 01:34:14;;;;;;;17.13;16.23;;;8.80;93.70;;;;;;5015016;28;20192;-78
2020/12/21 01:36:41;;;;;;;16.65;15.65;;;8.80;93.60;;;;;;5014809;28;20215;-77
2020/12/21 01:39:07;;;;;;;17.55;16.20;;;8.80;93.60;;;;;;5015828;28;20198;-77
2020/12/21 01:41:35;;;;;;;16.35;15.45;;;8.70;93.80;;;;;;5015399;28;20558;-77
2020/12/21 01:44:01;;;;;;;16.17;15.20;;;8.70;93.90;;;;;;5015150;28;20194;-78
2020/12/21 01:46:28;;;;;;;17.05;16.05;;;8.60;93.90;;;;;;5015040;28;20222;-78
2020/12/21 01:48:54;;;;;;;17.17;16.08;;;8.60;94.10;;;;;;5015277;28;20204;-78
2020/12/21 01:51:22;;;;;;;15.75;14.95;;;8.50;94.20;;;;;;5015115;28;20217;-78
2020/12/21 01:53:51;;;;;;;15.63;14.73;;;8.50;94.40;;;;;;5015179;28;20587;-77
2020/12/21 01:56:18;;;;;;;138.48;24.55;;;8.40;94.50;;;;;;5014946;28;20218;-77
2020/12/21 01:58:47;;;;;;;15.35;14.43;;;8.50;94.40;;;;;;5014431;28;20198;-78
2020/12/21 02:01:15;;;;;;;16.00;15.10;;;8.40;94.90;;;;;;5015015;28;20289;-78
2020/12/21 02:03:42;;;;;;;15.75;14.77;;;8.30;95.30;;;;;;5014929;28;20208;-77
2020/12/21 02:06:10;;;;;;;15.35;14.55;;;8.20;95.30;;;;;;5014605;28;20210;-77
2020/12/21 02:08:36;;;;;;;15.20;14.40;;;8.20;95.10;;;;;;5014906;28;20279;-78
2020/12/21 02:11:02;;;;;;;15.30;14.50;;;8.20;94.90;;;;;;5014704;28;20225;-77
2020/12/21 02:13:29;;;;;;;15.55;14.65;;;8.10;95.70;;;;;;5014571;28;20289;-78
2020/12/21 02:15:56;;;;;;;15.02;14.25;;;8.10;95.60;;;;;;5014663;28;20225;-77
2020/12/21 02:18:23;;;;;;;15.65;14.85;;;8.10;95.50;;;;;;5014349;28;20190;-78
2020/12/21 02:20:50;;;;;;;15.30;14.40;;;8.10;95.20;;;;;;5014742;28;20214;-77
2020/12/21 02:23:16;;;;;;;16.15;15.15;;;8.10;94.80;;;;;;5014539;28;20191;-78
2020/12/21 02:25:43;;;;;;;15.30;14.60;;;8.10;94.70;;;;;;5014548;28;20224;-78
2020/12/21 02:28:09;;;;;;;16.40;15.40;;;8.00;94.30;;;;;;5016401;28;20205;-77
2020/12/21 02:30:36;;;;;;;15.98;14.95;;;8.00;94.40;;;;;;5016610;28;20221;-78
2020/12/21 02:33:05;;;;;;;16.17;15.27;;;7.80;94.60;;;;;;5017086;28;20261;-77
2020/12/21 02:35:33;;;;;;;15.55;14.65;;;7.80;94.70;;;;;;5016199;28;20710;-78
2020/12/21 02:38:01;;;;;;;16.70;15.70;;;7.60;95.10;;;;;;5014149;28;20277;-77
2020/12/21 02:40:27;;;;;;;16.20;15.05;;;7.50;95.60;;;;;;5014288;28;20668;-78
2020/12/21 02:42:54;;;;;;;16.40;15.50;;;7.50;95.80;;;;;;5014030;28;20694;-77
2020/12/21 02:45:20;;;;;;;16.20;15.25;;;7.40;96.00;;;;;;5014269;28;20232;-78
2020/12/21 02:47:46;;;;;;;16.63;15.45;;;7.50;96.20;;;;;;5013843;28;20202;-77
2020/12/21 02:50:12;;;;;;;17.80;15.25;;;7.50;96.50;;;;;;5014198;28;20228;-78
2020/12/21 02:52:39;;;;;;;15.70;14.80;;;7.50;96.30;;;;;;5014221;28;20194;-77
2020/12/21 02:55:07;;;;;;;16.30;15.40;;;7.60;96.20;;;;;;5014148;28;20198;-78
2020/12/21 02:57:33;;;;;;;16.38;15.27;;;7.50;96.10;;;;;;5013951;28;20201;-77
2020/12/21 03:00:00;;;;;;;15.85;15.05;;;7.50;96.00;;;;;;5013840;28;20202;-77
2020/12/21 03:02:26;;;;;;;16.05;15.15;;;7.50;95.90;;;;;;5014359;28;20284;-77
2020/12/21 03:04:52;;;;;;;335.73;42.33;;;7.50;95.70;;;;;;5015248;28;20676;-77
2020/12/21 03:07:18;;;;;;;16.38;15.48;;;7.50;96.70;;;;;;5013410;28;20224;-77
2020/12/21 03:09:45;;;;;;;16.35;15.45;;;7.40;97.40;;;;;;5013201;28;20236;-77
2020/12/21 03:12:12;;;;;;;16.88;15.98;;;7.30;97.40;;;;;;5013553;28;20225;-77
2020/12/21 03:14:38;;;;;;;15.82;14.93;;;7.30;97.10;;;;;;5013450;28;20344;-78
2020/12/21 03:17:05;;;;;;;15.65;14.85;;;7.40;96.60;;;;;;5013727;28;20283;-77
2020/12/21 03:19:31;;;;;;;16.00;15.15;;;7.30;96.20;;;;;;5014680;28;20274;-78
2020/12/21 03:21:57;;;;;;;16.75;15.73;;;7.30;96.10;;;;;;5014389;28;20225;-77
2020/12/21 03:24:24;;;;;;;17.25;15.73;;;7.20;95.90;;;;;;5014547;28;20264;-77
2020/12/21 03:26:50;;;;;;;15.82;14.93;;;7.20;96.10;;;;;;5014561;28;20448;-77
2020/12/21 03:29:17;;;;;;;16.73;15.73;;;7.10;96.80;;;;;;5014481;28;20255;-78
2020/12/21 03:31:44;;;;;;;17.23;15.88;;;7.00;96.60;;;;;;5014178;28;20713;-77
2020/12/21 03:34:13;;;;;;;15.63;14.82;;;7.10;96.30;;;;;;5015730;28;20617;-78
2020/12/21 03:36:40;;;;;;;16.52;15.63;;;7.10;96.00;;;;;;5014862;28;20214;-78
2020/12/21 03:39:06;;;;;;;17.60;16.70;;;7.00;95.50;;;;;;5015153;28;20570;-78
2020/12/21 03:41:33;;;;;;;19.48;18.38;;;7.10;95.20;;;;;;5015045;28;20624;-78
2020/12/21 03:43:59;;;;;;;15.85;15.05;;;6.90;95.10;;;;;;5015023;28;20202;-78
2020/12/21 03:46:26;;;;;;;17.13;16.20;;;6.90;95.30;;;;;;5014069;28;20222;-77
2020/12/21 03:48:53;;;;;;;17.60;16.50;;;6.90;95.30;;;;;;5014078;28;20205;-77
2020/12/21 03:51:19;;;;;;;17.73;16.63;;;6.90;95.00;;;;;;5013981;28;20232;-78
2020/12/21 03:53:46;;;;;;;18.00;17.00;;;6.80;95.10;;;;;;5014595;28;20201;-77
2020/12/21 03:56:12;;;;;;;18.10;16.90;;;6.70;95.40;;;;;;5014238;28;20220;-78
2020/12/21 03:58:39;;;;;;;17.60;16.60;;;6.70;96.10;;;;;;5013401;28;20214;-77
2020/12/21 04:01:05;;;;;;;16.90;15.90;;;6.60;96.50;;;;;;5012793;28;20191;-78
2020/12/21 04:03:32;;;;;;;17.83;16.73;;;6.60;97.00;;;;;;5013460;28;20295;-77
2020/12/21 04:05:59;;;;;;;17.50;16.38;;;6.60;96.80;;;;;;5013591;28;20295;-77
2020/12/21 04:08:25;;;;;;;17.55;16.65;;;6.60;96.50;;;;;;5012676;28;20628;-77
2020/12/21 04:10:51;;;;;;;17.67;16.67;;;6.60;96.30;;;;;;5012016;28;20224;-77
2020/12/21 04:13:18;;;;;;;18.90;17.60;;;6.50;96.40;;;;;;5012428;28;20193;-77
2020/12/21 04:15:44;;;;;;;19.17;17.88;;;6.50;96.30;;;;;;5012869;28;20226;-77
2020/12/21 04:18:11;;;;;;;18.42;17.20;;;6.50;96.60;;;;;;5012217;28;20194;-77
2020/12/21 04:20:38;;;;;;;17.08;16.10;;;6.50;97.50;;;;;;5012018;28;20670;-78
2020/12/21 04:23:04;;;;;;;18.50;17.15;;;6.40;98.20;;;;;;5014790;28;20200;-77
2020/12/21 04:25:31;;;;;;;17.25;16.35;;;6.50;97.70;;;;;;5015819;28;20214;-78
2020/12/21 04:27:57;;;;;;;18.45;17.35;;;6.50;97.20;;;;;;5016246;28;20198;-77
2020/12/21 04:30:23;;;;;;;18.92;17.92;;;6.50;96.70;;;;;;5015421;28;20779;-77
2020/12/21 04:32:50;;;;;;;17.85;16.75;;;6.40;96.70;;;;;;5015225;28;20202;-77
2020/12/21 04:35:16;;;;;;;17.75;16.58;;;6.50;96.70;;;;;;5015286;28;20218;-77
2020/12/21 04:37:43;;;;;;;17.88;16.88;;;6.40;96.20;;;;;;5014355;28;20256;-77
2020/12/21 04:40:10;;;;;;;18.90;17.80;;;6.40;96.30;;;;;;5015105;28;20264;-78
2020/12/21 04:42:47;;;;;;;17.42;16.33;;;6.40;96.00;;;;;;5014942;28;20264;-78
2020/12/21 04:45:14;;;;;;;17.92;17.02;;;6.40;96.00;;;;;;5015125;28;20198;-77
2020/12/21 04:47:43;;;;;;;17.92;16.77;;;6.30;96.10;;;;;;5014960;28;20202;-77
2020/12/21 04:50:11;;;;;;;18.50;17.40;;;6.40;96.10;;;;;;5015011;28;20197;-77
2020/12/21 04:52:48;;;;;;;17.65;16.65;;;6.40;96.00;;;;;;5015060;28;20202;-77
2020/12/21 04:55:17;;;;;;;18.25;17.08;;;6.40;96.20;;;;;;5014996;28;20200;-77
2020/12/21 04:57:54;;;;;;;17.52;16.48;;;6.40;96.10;;;;;;4993764;28;603086;-77
2020/12/21 05:00:20;;;;;;;17.67;16.65;;;6.50;95.80;;;;;;5016225;28;20663;-77
2020/12/21 05:02:47;;;;;;;17.58;16.55;;;6.50;95.40;;;;;;5015998;28;20627;-77
2020/12/21 05:05:13;;;;;;;18.65;17.45;;;6.50;95.50;;;;;;5015863;28;20197;-77
2020/12/21 05:07:40;;;;;;;18.58;17.48;;;6.50;95.40;;;;;;5015844;28;20632;-77
2020/12/21 05:10:08;;;;;;;19.13;17.48;;;6.60;95.10;;;;;;5015954;28;20198;-77
2020/12/21 05:12:35;;;;;;;18.20;17.10;;;6.60;95.20;;;;;;5015814;28;20193;-77
2020/12/21 05:15:12;;;;;;;19.40;18.10;;;6.60;95.40;;;;;;5015934;28;20201;-77
2020/12/21 05:17:38;;;;;;;17.88;16.80;;;6.60;95.30;;;;;;5015913;28;20205;-77
2020/12/21 05:20:05;;;;;;;19.38;18.20;;;6.70;94.90;;;;;;5015931;28;20229;-78
2020/12/21 05:22:31;;;;;;;18.80;17.70;;;6.60;94.90;;;;;;5015786;28;20198;-78
2020/12/21 05:25:05;;;;;;;18.60;17.60;;;6.60;94.60;;;;;;5016889;28;20206;-77
2020/12/21 05:27:32;;;;;;;19.27;18.08;;;6.70;94.40;;;;;;5017155;28;20217;-77
2020/12/21 05:29:59;;;;;;;19.42;18.23;;;6.70;94.30;;;;;;5016034;28;20248;-78
2020/12/21 05:32:25;;;;;;;19.20;18.00;;;6.60;95.00;;;;;;5015146;28;20219;-77
2020/12/21 05:34:52;;;;;;;19.60;18.45;;;6.60;95.40;;;;;;5014522;28;20197;-78
2020/12/21 05:37:20;;;;;;;22.70;17.80;;;6.60;95.40;;;;;;5015092;28;20304;-77
2020/12/21 05:39:51;;;;;;;18.35;17.20;;;6.70;95.00;;;;;;5016871;28;20198;-77
2020/12/21 05:42:17;;;;;;;18.65;17.48;;;6.70;94.50;;;;;;5017005;28;20190;-77
2020/12/21 05:44:56;;;;;;;19.50;18.35;;;6.70;93.80;;;;;;5015643;28;20202;-77
2020/12/21 05:47:23;;;;;;;19.65;18.48;;;6.70;94.00;;;;;;5015314;28;20194;-78
2020/12/21 05:49:55;;;;;;;19.73;18.42;;;6.60;94.30;;;;;;5015220;28;20202;-77
2020/12/21 05:52:33;;;;;;;19.10;18.00;;;6.70;94.50;;;;;;5015113;28;20607;-77
2020/12/21 05:55:04;;;;;;;19.15;18.05;;;6.70;95.00;;;;;;5015167;28;20194;-77
2020/12/21 05:57:31;;;;;;;18.70;17.55;;;6.70;94.80;;;;;;5015002;28;20208;-77
2020/12/21 06:00:00;;;;;;;19.52;17.98;;;6.70;94.60;;;;;;5014910;28;20215;-78
2020/12/21 06:02:30;;;;;;;19.40;18.10;;;6.80;94.60;;;;;;5014793;28;20539;-77
2020/12/21 06:05:00;;;;;;;19.90;18.70;;;6.90;94.30;;;;;;5015050;28;20614;-78
2020/12/21 06:07:29;;;;;;;19.33;18.10;;;6.90;93.90;;;;;;5015055;28;20205;-77
2020/12/21 06:09:58;;;;;;;18.65;17.15;;;6.90;93.60;;;;;;5014937;28;20725;-77
2020/12/21 06:12:27;;;;;;;640.30;92.13;;;6.90;93.70;;;;;;5014495;28;20695;-78
2020/12/21 06:14:58;;;;;;;19.27;17.83;;;6.90;96.30;;;;;;5014843;28;20205;-78
2020/12/21 06:17:25;;;;;;;19.25;18.15;;;6.90;95.60;;;;;;5014424;28;20196;-78
2020/12/21 06:20:04;;;;;;;18.10;17.15;;;6.90;94.90;;;;;;4997852;28;20309;-77
2020/12/21 06:22:31;;;;;;;18.73;17.58;;;6.90;94.80;;;;;;5015272;28;20202;-77
2020/12/21 06:24:57;;;;;;;20.17;18.77;;;6.80;94.60;;;;;;5015536;28;20198;-78
2020/12/21 06:27:23;;;;;;;19.55;18.30;;;6.80;94.70;;;;;;5014432;28;20663;-77
2020/12/21 06:29:59;;;;;;;19.15;18.05;;;6.80;94.50;;;;;;5014503;28;20251;-77
2020/12/21 06:32:31;;;;;;;20.20;18.98;;;6.80;94.50;;;;;;5014222;28;20221;-77
2020/12/21 06:34:58;;;;;;;19.13;17.92;;;6.80;94.60;;;;;;5014163;28;20194;-77
2020/12/21 06:37:26;;;;;;;20.55;19.02;;;6.80;94.50;;;;;;5013947;28;20232;-78
2020/12/21 06:40:00;;;;;;;20.23;18.83;;;6.80;94.50;;;;;;5014429;28;20225;-77
2020/12/21 06:42:27;;;;;;;19.63;18.40;;;6.90;94.30;;;;;;5013721;28;20193;-77
2020/12/21 06:44:54;;;;;;;20.70;19.15;;;6.90;93.90;;;;;;5013350;28;20660;-77
2020/12/21 06:47:22;;;;;;;19.80;18.58;;;6.80;94.30;;;;;;5013711;28;20631;-77
2020/12/21 06:49:50;;;;;;;188.20;33.50;;;6.90;93.70;;;;;;5013862;28;20279;-77
2020/12/21 06:52:17;;;;;;;20.10;18.30;;;6.90;93.40;;;;;;5013973;28;20352;-77
2020/12/21 06:54:44;;;;;;;21.58;19.98;;;6.70;94.20;;;;;;5014163;28;20201;-77
2020/12/21 06:57:11;;;;;;;19.40;18.10;;;6.70;94.60;;;;;;5013848;28;20206;-77
2020/12/21 06:59:38;;;;;;;20.90;19.20;;;6.70;94.30;;;;;;5014014;28;20620;-77
2020/12/21 07:02:04;;;;;;;22.40;20.85;;;6.80;93.60;;;;;;5015240;28;20197;-77
2020/12/21 07:04:32;;;;;;;45.17;23.08;;;6.70;93.30;;;;;;5014711;28;20225;-77
2020/12/21 07:07:01;;;;;;;1999.90;769.45;;;6.60;94.90;;;;;;5013531;28;20725;-77
2020/12/21 07:09:29;;;;;;;21.17;19.88;;;6.60;98.20;;;;;;5013986;28;20230;-77
2020/12/21 07:11:57;;;;;;;21.30;19.80;;;6.70;96.50;;;;;;5013808;28;20305;-77
2020/12/21 07:14:25;;;;;;;20.38;18.90;;;6.70;95.10;;;;;;5013722;28;20199;-77
2020/12/21 07:17:02;;;;;;;21.83;20.02;;;6.60;94.90;;;;;;5013101;28;20295;-77
2020/12/21 07:19:29;;;;;;;21.42;19.67;;;6.70;94.70;;;;;;5013567;28;20682;-77
2020/12/21 07:21:55;;;;;;;19.30;18.00;;;6.70;94.30;;;;;;5013720;28;20196;-77
2020/12/21 07:24:23;;;;;;;21.58;20.13;;;6.70;94.10;;;;;;5013606;28;20602;-77
2020/12/21 07:26:50;;;;;;;20.73;19.35;;;6.80;93.90;;;;;;5013093;28;20691;-77
2020/12/21 07:29:17;;;;;;;21.17;19.45;;;6.90;92.70;;;;;;5013569;28;20194;-77
2020/12/21 07:31:43;;;;;;;20.23;18.40;;;6.90;92.80;;;;;;5013186;28;20217;-77
2020/12/21 07:34:10;;;;;;;22.10;20.60;;;6.90;92.60;;;;;;5013071;28;20190;-77
2020/12/21 07:36:38;;;;;;;21.85;20.15;;;6.90;92.90;;;;;;5012855;28;20228;-77
2020/12/21 07:39:08;;;;;;;21.35;19.85;;;7.00;92.70;;;;;;5013005;28;20552;-77
2020/12/21 07:41:37;;;;;;;21.20;20.00;;;7.00;93.10;;;;;;5013105;28;20198;-77
2020/12/21 07:44:07;;;;;;;22.35;20.50;;;7.00;92.80;;;;;;5013323;28;20198;-78
2020/12/21 07:46:43;;;;;;;21.48;20.05;;;7.10;91.90;;;;;;5012813;28;20209;-77
2020/12/21 07:49:11;;;;;;;19.42;18.08;;;7.10;92.00;;;;;;5013344;28;20551;-77
2020/12/21 07:51:42;;;;;;;22.00;20.50;;;7.00;92.00;;;;;;5013131;28;20257;-77
2020/12/21 07:54:09;;;;;;;21.20;19.52;;;7.00;91.90;;;;;;5013259;28;20230;-77
2020/12/21 07:56:36;;;;;;;22.15;20.55;;;7.00;91.70;;;;;;5012579;28;20214;-78
2020/12/21 07:59:14;;;;;;;22.20;20.70;;;7.00;92.00;;;;;;5013081;28;20237;-78
2020/12/21 08:01:41;;;;;;;21.27;19.83;;;7.00;92.20;;;;;;5013237;28;20200;-77
2020/12/21 08:04:15;;;;;;;281.70;48.88;;;7.00;92.40;;;;;;5012616;28;20252;-77
2020/12/21 08:06:42;;;;;;;23.08;21.48;;;7.10;94.30;;;;;;5012717;28;20221;-77
2020/12/21 08:09:08;;;;;;;25.48;23.48;;;7.10;93.40;;;;;;5012526;28;20190;-77
2020/12/21 08:11:37;;;;;;;23.17;20.90;;;7.10;92.70;;;;;;5012741;28;20224;-77
2020/12/21 08:14:04;;;;;;;20.90;19.40;;;7.10;92.40;;;;;;5012995;28;20204;-77
2020/12/21 08:16:31;;;;;;;24.45;22.45;;;7.20;91.90;;;;;;5012749;28;20224;-78
2020/12/21 08:18:58;;;;;;;27.65;24.52;;;7.40;90.50;;;;;;5012575;28;20619;-78
2020/12/21 08:21:25;;;;;;;23.08;21.48;;;7.40;89.90;;;;;;5013925;28;20198;-78
2020/12/21 08:23:53;;;;;;;22.98;21.35;;;7.40;90.00;;;;;;5013894;28;20293;-77
2020/12/21 08:26:19;;;;;;;22.05;20.75;;;7.40;89.60;;;;;;5012680;28;20591;-77
2020/12/21 08:28:49;;;;;;;23.58;21.77;;;7.50;88.80;;;;;;5012482;28;20194;-77
2020/12/21 08:31:18;;;;;;;23.73;21.85;;;7.50;88.60;;;;;;5012428;28;20264;-77
2020/12/21 08:34:00;;;;;;;22.52;21.13;;;7.50;88.80;;;;;;5013097;28;20201;-77
2020/12/21 08:36:31;;;;;;;23.52;21.83;;;7.60;88.40;;;;;;5019658;28;20218;-77
2020/12/21 08:39:12;;;;;;;21.80;20.50;;;7.60;88.40;;;;;;5016390;28;20798;-77
2020/12/21 08:41:41;;;;;;;24.10;22.40;;;7.60;88.00;;;;;;5012749;28;20197;-77
2020/12/21 08:44:13;;;;;;;20.73;19.40;;;7.70;87.90;;;;;;5012459;28;20213;-78
2020/12/21 08:46:43;;;;;;;22.38;20.63;;;7.70;87.60;;;;;;5013167;28;20222;-78
2020/12/21 08:49:09;;;;;;;22.20;20.70;;;7.60;87.80;;;;;;5015304;28;20360;-78
2020/12/21 08:51:36;;;;;;;23.10;21.50;;;7.70;87.90;;;;;;5014461;28;20214;-78
2020/12/21 08:54:02;;;;;;;23.55;22.00;;;7.70;87.80;;;;;;5012469;28;20211;-78
2020/12/21 08:56:28;;;;;;;23.48;21.67;;;7.70;88.10;;;;;;5012409;28;20646;-77
2020/12/21 08:58:55;;;;;;;23.40;21.70;;;7.70;89.10;;;;;;5012376;28;20217;-77
2020/12/21 09:01:22;;;;;;;25.00;22.92;;;7.80;88.70;;;;;;5012276;28;20206;-77
2020/12/21 09:03:49;;;;;;;22.92;21.30;;;7.90;88.20;;;;;;4992951;28;20205;-77
2020/12/21 09:06:20;;;;;;;24.60;22.73;;;8.00;87.80;;;;;;5010187;28;20221;-77
2020/12/21 09:08:47;;;;;;;23.70;21.90;;;8.00;87.70;;;;;;5013625;28;20248;-77
2020/12/21 09:11:18;;;;;;;24.25;22.75;;;8.10;87.80;;;;;;5015698;28;20217;-77
2020/12/21 09:13:44;;;;;;;25.40;23.27;;;8.20;87.20;;;;;;5016019;28;20197;-77
2020/12/21 09:16:11;;;;;;;23.25;21.65;;;8.30;87.00;;;;;;5015402;28;20737;-77
2020/12/21 09:18:38;;;;;;;23.48;21.67;;;8.30;86.80;;;;;;5016021;28;20271;-78
2020/12/21 09:21:04;;;;;;;23.25;21.30;;;8.40;87.00;;;;;;5016080;28;20202;-77
2020/12/21 09:23:32;;;;;;;23.05;21.55;;;8.50;86.60;;;;;;5015290;28;20552;-77
2020/12/21 09:25:58;;;;;;;23.10;21.58;;;8.40;86.70;;;;;;5015600;28;20260;-78
2020/12/21 09:28:25;;;;;;;33.45;25.83;;;8.50;86.80;;;;;;5015444;28;20190;-77
2020/12/21 09:30:51;;;;;;;33.17;27.30;;;8.60;86.50;;;;;;5015674;28;20627;-78
2020/12/21 09:33:18;;;;;;;24.27;22.40;;;8.60;86.90;;;;;;5015686;28;20238;-78
2020/12/21 09:35:45;;;;;;;22.42;20.80;;;8.60;86.90;;;;;;5015174;28;20274;-78
2020/12/21 09:38:11;;;;;;;21.63;20.33;;;8.70;86.70;;;;;;5015647;28;20202;-77
2020/12/21 09:40:38;;;;;;;23.02;21.63;;;8.70;87.30;;;;;;5015475;28;20206;-77
2020/12/21 09:43:04;;;;;;;22.83;21.15;;;8.90;86.30;;;;;;5015294;28;20204;-77
2020/12/21 09:45:30;;;;;;;25.35;23.08;;;8.90;85.20;;;;;;5015290;28;20217;-77
2020/12/21 09:47:57;;;;;;;25.30;23.23;;;8.90;85.30;;;;;;5015254;28;20782;-77
2020/12/21 09:50:23;;;;;;;43.15;26.67;;;9.00;84.80;;;;;;5015814;28;20622;-78
2020/12/21 09:52:50;;;;;;;22.35;21.05;;;9.10;85.40;;;;;;5015060;28;20213;-78
2020/12/21 09:55:16;;;;;;;23.45;21.65;;;9.20;84.50;;;;;;5015226;28;20575;-77
2020/12/21 09:57:43;;;;;;;48.67;24.75;;;9.40;83.00;;;;;;5014835;28;20747;-78
2020/12/21 10:00:09;;;;;;;81.33;30.30;;;9.40;82.60;;;;;;5015191;28;20209;-78
2020/12/21 10:02:35;;;;;;;23.90;21.92;;;9.40;82.70;;;;;;5014889;28;20445;-78
2020/12/21 10:05:02;;;;;;;24.77;22.97;;;9.50;82.70;;;;;;5014844;28;20194;-77
2020/12/21 10:07:28;;;;;;;30.90;23.17;;;9.50;82.40;;;;;;5015053;28;20453;-77
2020/12/21 10:09:55;;;;;;;23.73;22.03;;;9.50;82.50;;;;;;5014723;28;20552;-77
2020/12/21 10:12:22;;;;;;;28.93;23.50;;;9.70;81.70;;;;;;5014710;28;20488;-77
2020/12/21 10:14:48;;;;;;;24.90;23.10;;;9.80;81.20;;;;;;5015008;28;20451;-77
2020/12/21 10:17:14;;;;;;;23.53;22.17;;;9.80;80.90;;;;;;5014519;28;20989;-77
2020/12/21 10:19:41;;;;;;;22.33;21.03;;;9.80;80.80;;;;;;5014424;28;20970;-77
2020/12/21 10:22:07;;;;;;;24.93;23.00;;;9.80;81.00;;;;;;5014419;28;20459;-77
2020/12/21 10:24:33;;;;;;;24.33;22.77;;;9.90;80.80;;;;;;5014651;28;20459;-77
2020/12/21 10:27:01;;;;;;;28.13;25.77;;;10.00;80.20;;;;;;5014185;28;20797;-77
2020/12/21 10:29:27;;;;;;;29.40;24.73;;;10.10;80.00;;;;;;5014005;28;20540;-77
2020/12/21 10:31:57;;;;;;;23.87;22.17;;;10.10;79.80;;;;;;5014563;28;20480;-77
2020/12/21 10:34:23;;;;;;;24.47;22.67;;;10.10;79.80;;;;;;5014451;28;20475;-77
2020/12/21 10:36:50;;;;;;;23.33;21.93;;;10.20;79.40;;;;;;5013691;28;20476;-77
2020/12/21 10:39:17;;;;;;;24.67;23.00;;;10.20;79.20;;;;;;5014384;28;20459;-77
2020/12/21 10:41:43;;;;;;;23.57;22.07;;;10.30;79.00;;;;;;5013839;28;20453;-77
2020/12/21 10:44:10;;;;;;;24.10;22.70;;;10.10;79.30;;;;;;5014323;28;20453;-77
2020/12/21 10:46:37;;;;;;;23.90;22.40;;;10.10;79.50;;;;;;5013913;28;20508;-77
2020/12/21 10:49:03;;;;;;;25.23;23.30;;;10.20;80.20;;;;;;5014109;28;20454;-77
2020/12/21 10:51:31;;;;;;;23.53;22.13;;;10.20;80.20;;;;;;5014081;28;20480;-77
2020/12/21 10:53:58;;;;;;;23.43;21.77;;;10.20;79.20;;;;;;5014266;28;20963;-77
2020/12/21 10:56:24;;;;;;;23.83;22.30;;;10.30;78.70;;;;;;5013789;28;21040;-77
2020/12/21 10:58:51;;;;;;;22.43;21.20;;;10.30;78.20;;;;;;5013505;28;20464;-77
2020/12/21 11:01:19;;;;;;;24.20;22.60;;;10.30;78.20;;;;;;5013706;28;20476;-77
2020/12/21 11:03:45;;;;;;;24.13;22.23;;;10.30;78.70;;;;;;5014032;28;20566;-77
2020/12/21 11:06:12;;;;;;;23.50;22.13;;;10.30;78.70;;;;;;5013418;28;20473;-77
2020/12/21 11:08:39;;;;;;;23.97;22.53;;;10.20;79.30;;;;;;5013925;28;20544;-78
2020/12/21 11:11:05;;;;;;;22.77;21.30;;;10.20;79.20;;;;;;5013861;28;20556;-78
2020/12/21 11:13:35;;;;;;;22.43;21.13;;;10.30;79.50;;;;;;5013954;28;20464;-78
2020/12/21 11:16:02;;;;;;;22.70;21.30;;;10.30;79.20;;;;;;5013403;28;20469;-78
2020/12/21 11:18:30;;;;;;;23.50;21.57;;;10.30;79.30;;;;;;5013722;28;20457;-77
2020/12/21 11:20:58;;;;;;;23.20;21.77;;;10.30;78.90;;;;;;5013695;28;20460;-77
2020/12/21 11:23:24;;;;;;;21.70;20.50;;;10.40;79.10;;;;;;5013552;28;20938;-77
2020/12/21 11:25:51;;;;;;;21.77;20.50;;;10.40;80.40;;;;;;5013115;28;20473;-77
2020/12/21 11:28:17;;;;;;;22.30;20.70;;;10.30;81.10;;;;;;5013346;28;20455;-77
2020/12/21 11:30:43;;;;;;;23.50;22.00;;;10.50;79.40;;;;;;5013199;28;20483;-77
2020/12/21 11:33:10;;;;;;;23.40;21.97;;;10.60;78.20;;;;;;5013324;28;20450;-78
2020/12/21 11:35:37;;;;;;;22.70;21.30;;;10.70;78.70;;;;;;5013135;28;20473;-78
2020/12/21 11:38:03;;;;;;;23.43;21.83;;;10.80;78.50;;;;;;5012993;28;20461;-78
2020/12/21 11:40:30;;;;;;;23.70;22.20;;;10.80;77.80;;;;;;5012508;28;20537;-78
2020/12/21 11:42:56;;;;;;;22.97;21.50;;;10.80;78.00;;;;;;5013181;28;20897;-78
2020/12/21 11:45:23;;;;;;;24.03;22.47;;;10.70;78.50;;;;;;5013178;28;20895;-78
2020/12/21 11:47:49;;;;;;;23.33;21.87;;;10.70;78.30;;;;;;5013098;28;20456;-78
2020/12/21 11:50:16;;;;;;;24.90;23.10;;;10.60;78.30;;;;;;5012960;28;20444;-78
2020/12/21 11:52:43;;;;;;;24.80;23.10;;;10.70;78.30;;;;;;5013156;28;20951;-78
2020/12/21 11:55:09;;;;;;;23.63;22.13;;;10.60;78.40;;;;;;5018789;28;20529;-78
2020/12/21 11:57:36;;;;;;;24.43;22.90;;;10.70;78.40;;;;;;5020393;28;20451;-78
2020/12/21 12:00:04;;;;;;;25.73;23.00;;;10.60;78.70;;;;;;5017337;28;20954;-78
2020/12/21 12:02:31;;;;;;;24.03;22.33;;;10.70;79.00;;;;;;5013169;28;20454;-78
2020/12/21 12:04:57;;;;;;;24.80;23.30;;;10.80;79.00;;;;;;5013151;28;20453;-78
2020/12/21 12:07:23;;;;;;;40.10;25.97;;;10.90;78.90;;;;;;5012982;28;20457;-78
2020/12/21 12:09:51;;;;;;;50.30;29.40;;;11.00;79.40;;;;;;5012763;28;20444;-78
2020/12/21 12:12:17;;;;;;;40.43;23.80;;;11.10;79.30;;;;;;5012686;28;20473;-78
2020/12/21 12:14:44;;;;;;;24.97;23.13;;;11.20;78.70;;;;;;5013206;28;20453;-78
2020/12/21 12:19:58;;;;;;;24.40;22.70;;;11.30;78.50;;;;;;5015408;28;20548;-78
2020/12/21 12:22:24;;;;;;;34.30;23.20;;;11.30;78.20;;;;;;5013021;28;20588;-78
2020/12/21 12:24:52;;;;;;;23.50;22.10;;;11.20;78.50;;;;;;5004725;28;20446;-78
2020/12/21 12:27:18;;;;;;;23.63;21.80;;;11.30;78.70;;;;;;5012471;28;20476;-78
2020/12/21 12:29:45;;;;;;;23.13;21.37;;;11.20;79.50;;;;;;5012890;28;20457;-78
2020/12/21 12:32:11;;;;;;;29.87;23.50;;;11.20;79.50;;;;;;5012284;28;20473;-78
2020/12/21 12:34:39;;;;;;;39.13;28.03;;;11.20;79.90;;;;;;5012803;28;20536;-78
2020/12/21 12:37:05;;;;;;;25.60;23.60;;;11.30;80.30;;;;;;5011867;28;20477;-78
2020/12/21 12:39:32;;;;;;;25.03;22.93;;;11.40;80.00;;;;;;5012492;28;20515;-78